createdAt,value
2023-02-16T00:00:50.994Z,97935.88
2023-02-16T00:03:22.565Z,97934.34
2023-02-16T00:05:50.678Z,97939.53
2023-02-16T00:08:17.374Z,97942.44
2023-02-16T00:11:08.896Z,97934.63
2023-02-16T00:13:44.949Z,97944.44
2023-02-16T00:16:24.372Z,97948.88
2023-02-16T00:18:51.825Z,97943.66
2023-02-16T00:21:18.992Z,97945.56
2023-02-16T00:23:46.056Z,97944.84
2023-02-16T00:26:19.240Z,97938.00
2023-02-16T00:28:50.314Z,97944.22
2023-02-16T00:31:22.675Z,97944.91
2023-02-16T00:33:49.813Z,97944.00
2023-02-16T00:36:20.249Z,97945.91
2023-02-16T00:38:47.015Z,97938.81
2023-02-16T00:41:50.318Z,97943.66
2023-02-16T00:44:40.193Z,97937.69
2023-02-16T00:47:24.024Z,97935.88
2023-02-16T00:49:53.584Z,97941.25
2023-02-16T00:52:39.815Z,97945.81
2023-02-16T00:55:15.190Z,97945.25
2023-02-16T00:57:59.064Z,97960.81
2023-02-16T01:00:33.578Z,97959.34
2023-02-16T01:03:05.059Z,97955.78
2023-02-16T01:05:31.852Z,97949.59
2023-02-16T01:08:18.824Z,97956.66
2023-02-16T01:11:05.006Z,97959.47
2023-02-16T01:13:36.547Z,97960.41
2023-02-16T01:16:03.188Z,97948.06
2023-02-16T01:18:30.382Z,97948.72
2023-02-16T01:20:56.969Z,97947.13
2023-02-16T01:23:23.635Z,97950.59
2023-02-16T01:25:50.319Z,97948.06
2023-02-16T01:28:25.546Z,97955.78
2023-02-16T01:30:53.396Z,97954.13
2023-02-16T01:33:20.721Z,97943.78
2023-02-16T01:35:47.800Z,97952.31
2023-02-16T01:38:19.016Z,97953.28
2023-02-16T01:41:25.926Z,97958.72
2023-02-16T01:43:58.945Z,97938.00
2023-02-16T01:47:13.303Z,97942.22
2023-02-16T01:49:39.931Z,97940.47
2023-02-16T01:52:19.342Z,97939.78
2023-02-16T01:54:51.093Z,97938.16
2023-02-16T01:58:12.027Z,97936.41
2023-02-16T02:00:49.224Z,97931.16
2023-02-16T02:03:38.292Z,97930.22
2023-02-16T02:06:09.265Z,97926.66
2023-02-16T02:08:45.964Z,97921.31
2023-02-16T02:11:17.000Z,97915.88
2023-02-16T02:14:03.188Z,97915.53
2023-02-16T02:16:29.844Z,97906.53
2023-02-16T02:18:57.202Z,97910.66
2023-02-16T02:22:26.238Z,97909.34
2023-02-16T02:25:11.404Z,97910.72
2023-02-16T02:27:43.162Z,97908.00
2023-02-16T02:30:15.505Z,97905.59
2023-02-16T02:32:55.427Z,97910.00
2023-02-16T02:35:40.281Z,97903.19
2023-02-16T02:38:22.732Z,97903.91
2023-02-16T02:41:04.372Z,97904.53
2023-02-16T02:43:37.041Z,97899.13
2023-02-16T02:46:10.929Z,97908.59
2023-02-16T02:48:37.680Z,97897.28
2023-02-16T02:51:32.134Z,97902.28
2023-02-16T02:54:38.607Z,97906.41
2023-02-16T02:57:43.455Z,97905.31
2023-02-16T03:00:36.656Z,97904.31
2023-02-16T03:03:11.899Z,97903.41
2023-02-16T03:05:44.088Z,97900.00
2023-02-16T03:08:14.746Z,97903.41
2023-02-16T03:11:12.169Z,97904.09
2023-02-16T03:13:51.142Z,97900.59
2023-02-16T03:16:27.925Z,97903.31
2023-02-16T03:19:14.998Z,97904.19
2023-02-16T03:22:00.305Z,97905.94
2023-02-16T03:24:48.099Z,97900.63
2023-02-16T03:27:40.016Z,97899.84
2023-02-16T03:30:10.293Z,97901.78
2023-02-16T03:32:37.980Z,97902.75
2023-02-16T03:35:05.513Z,97891.47
2023-02-16T03:37:32.688Z,97895.69
2023-02-16T03:40:18.388Z,97895.06
2023-02-16T03:42:50.030Z,97893.06
2023-02-16T03:45:17.364Z,97886.34
2023-02-16T03:47:43.942Z,97884.59
2023-02-16T03:50:10.616Z,97889.47
2023-02-16T03:52:37.249Z,97882.47
2023-02-16T03:55:04.078Z,97876.31
2023-02-16T03:57:30.826Z,97878.91
2023-02-16T03:59:59.430Z,97881.53
2023-02-16T04:02:28.483Z,97878.81
2023-02-16T04:04:55.190Z,97888.44
2023-02-16T04:07:21.870Z,97887.00
2023-02-16T04:09:48.452Z,97887.81
2023-02-16T04:12:33.767Z,97893.47
2023-02-16T04:15:00.412Z,97890.09
2023-02-16T04:17:27.045Z,97893.63
2023-02-16T04:19:58.655Z,97901.38
2023-02-16T04:22:25.359Z,97902.00
2023-02-16T04:24:51.971Z,97899.59
2023-02-16T04:27:18.702Z,97894.44
2023-02-16T04:29:45.364Z,97895.09
2023-02-16T04:32:12.361Z,97891.44
2023-02-16T04:34:39.055Z,97889.00
2023-02-16T04:37:05.931Z,97893.41
2023-02-16T04:39:33.120Z,97895.94
2023-02-16T04:41:59.728Z,97892.53
2023-02-16T04:44:26.353Z,97888.28
2023-02-16T04:46:52.957Z,97885.81
2023-02-16T04:49:19.537Z,97884.97
2023-02-16T04:51:46.122Z,97885.09
2023-02-16T04:54:12.867Z,97885.25
2023-02-16T04:56:39.498Z,97884.66
2023-02-16T04:59:06.092Z,97886.63
2023-02-16T05:01:32.705Z,97881.25
2023-02-16T05:03:59.325Z,97880.22
2023-02-16T05:06:26.000Z,97888.03
2023-02-16T05:08:52.588Z,97888.22
2023-02-16T05:11:37.888Z,97891.72
2023-02-16T05:14:23.114Z,97897.53
2023-02-16T05:16:49.726Z,97894.88
2023-02-16T05:19:16.445Z,97895.22
2023-02-16T05:21:43.060Z,97902.22
2023-02-16T05:24:11.509Z,97900.59
2023-02-16T05:26:41.818Z,97904.28
2023-02-16T05:29:08.710Z,97897.22
2023-02-16T05:31:35.448Z,97892.03
2023-02-16T05:34:02.199Z,97894.72
2023-02-16T05:36:28.898Z,97898.06
2023-02-16T05:38:56.251Z,97899.63
2023-02-16T05:41:25.430Z,97899.78
2023-02-16T05:44:02.831Z,97903.19
2023-02-16T05:46:32.659Z,97907.63
2023-02-16T05:48:59.932Z,97912.41
2023-02-16T05:51:27.024Z,97917.84
2023-02-16T05:53:53.985Z,97915.31
2023-02-16T05:56:21.055Z,97914.13
2023-02-16T05:58:47.818Z,97914.03
2023-02-16T06:01:15.024Z,97913.25
2023-02-16T06:03:41.778Z,97914.97
2023-02-16T06:06:09.125Z,97916.44
2023-02-16T06:08:37.143Z,97909.94
2023-02-16T06:11:07.151Z,97909.94
2023-02-16T06:13:34.382Z,97905.78
2023-02-16T06:16:00.995Z,97905.81
2023-02-16T06:18:27.648Z,97908.22
2023-02-16T06:20:56.940Z,97898.41
2023-02-16T06:23:23.753Z,97901.66
2023-02-16T06:25:53.349Z,97897.34
2023-02-16T06:28:19.924Z,97904.09
2023-02-16T06:30:46.482Z,97903.28
2023-02-16T06:33:13.063Z,97899.03
2023-02-16T06:35:39.620Z,97905.25
2023-02-16T06:38:06.208Z,97909.38
2023-02-16T06:40:32.782Z,97908.41
2023-02-16T06:42:59.391Z,97907.34
2023-02-16T06:45:25.985Z,97911.81
2023-02-16T06:47:52.549Z,97913.66
2023-02-16T06:50:19.255Z,97914.41
2023-02-16T06:52:45.817Z,97912.63
2023-02-16T06:55:12.780Z,97907.63
2023-02-16T06:57:39.402Z,97905.88
2023-02-16T07:00:07.621Z,97904.97
2023-02-16T07:02:35.684Z,97911.78
2023-02-16T07:05:03.278Z,97911.53
2023-02-16T07:07:30.934Z,97908.75
2023-02-16T07:09:58.107Z,97909.66
2023-02-16T07:12:24.731Z,97907.78
2023-02-16T07:14:51.301Z,97921.44
2023-02-16T07:17:18.149Z,97916.88
2023-02-16T07:19:44.792Z,97914.19
2023-02-16T07:22:11.346Z,97916.63
2023-02-16T07:24:37.943Z,97912.19
2023-02-16T07:27:08.682Z,97917.88
2023-02-16T07:29:35.576Z,97919.34
2023-02-16T07:32:03.749Z,97905.91
2023-02-16T07:34:30.747Z,97915.06
2023-02-16T07:36:57.656Z,97903.25
2023-02-16T07:39:24.484Z,97900.09
2023-02-16T07:41:51.029Z,97898.59
2023-02-16T07:44:18.138Z,97900.91
2023-02-16T07:46:44.701Z,97900.25
2023-02-16T07:49:11.275Z,97901.16
2023-02-16T07:51:37.921Z,97909.84
2023-02-16T07:54:04.510Z,97909.16
2023-02-16T07:56:32.720Z,97905.97
2023-02-16T07:59:01.041Z,97909.06
2023-02-16T08:01:29.925Z,97918.81
2023-02-16T08:03:56.902Z,97914.63
2023-02-16T08:06:23.808Z,97923.59
2023-02-16T08:08:50.746Z,97922.22
2023-02-16T08:11:22.470Z,97923.28
2023-02-16T08:13:49.416Z,97921.34
2023-02-16T08:16:19.884Z,97924.00
2023-02-16T08:18:46.533Z,97913.38
2023-02-16T08:21:17.163Z,97911.22
2023-02-16T08:23:47.594Z,97918.53
2023-02-16T08:26:18.319Z,97907.06
2023-02-16T08:28:46.827Z,97915.00
2023-02-16T08:31:18.899Z,97918.38
2023-02-16T08:33:46.865Z,97907.44
2023-02-16T08:36:34.590Z,97913.34
2023-02-16T08:39:04.161Z,97915.25
2023-02-16T08:41:36.107Z,97921.19
2023-02-16T08:44:04.316Z,97919.00
2023-02-16T08:46:32.439Z,97915.94
2023-02-16T08:49:00.855Z,97922.53
2023-02-16T08:51:34.675Z,97922.53
2023-02-16T08:54:05.614Z,97921.47
2023-02-16T08:56:35.682Z,97923.41
2023-02-16T08:59:02.686Z,97914.31
2023-02-16T09:01:32.462Z,97910.25
2023-02-16T09:03:59.141Z,97908.34
2023-02-16T09:06:28.431Z,97912.38
2023-02-16T09:08:56.954Z,97909.81
2023-02-16T09:11:24.793Z,97911.97
2023-02-16T09:13:51.750Z,97909.13
2023-02-16T09:16:22.634Z,97910.13
2023-02-16T09:18:50.897Z,97914.91
2023-02-16T09:21:22.965Z,97921.09
2023-02-16T09:23:50.470Z,97906.56
2023-02-16T09:26:21.806Z,97904.94
2023-02-16T09:28:49.310Z,97904.09
2023-02-16T09:31:17.804Z,97904.00
2023-02-16T09:33:45.444Z,97903.50
2023-02-16T09:36:12.895Z,97903.88
2023-02-16T09:38:40.975Z,97907.00
2023-02-16T09:41:15.523Z,97908.28
2023-02-16T09:43:52.285Z,97910.81
2023-02-16T09:46:22.839Z,97905.81
2023-02-16T09:48:51.105Z,97919.06
2023-02-16T09:51:29.514Z,97917.22
2023-02-16T09:54:10.957Z,97913.38
2023-02-16T09:56:49.367Z,97919.75
2023-02-16T09:59:25.744Z,97909.81
2023-02-16T10:02:11.462Z,97908.69
2023-02-16T10:05:14.409Z,97898.66
2023-02-16T10:07:48.963Z,97894.34
2023-02-16T10:10:20.911Z,97896.69
2023-02-16T10:12:59.791Z,97895.81
2023-02-16T10:15:30.332Z,97898.66
2023-02-16T10:18:22.888Z,97898.75
2023-02-16T10:20:53.954Z,97899.44
2023-02-16T10:23:38.902Z,97894.72
2023-02-16T10:26:41.895Z,97894.78
2023-02-16T10:29:16.149Z,97896.16
2023-02-16T10:31:52.008Z,97881.78
2023-02-16T10:34:44.914Z,97886.47
2023-02-16T10:37:29.133Z,97890.56
2023-02-16T10:40:22.888Z,97885.03
2023-02-16T10:43:07.336Z,97892.53
2023-02-16T10:45:51.999Z,97892.59
2023-02-16T10:48:21.157Z,97894.09
2023-02-16T10:51:00.737Z,97889.88
2023-02-16T10:53:42.498Z,97894.50
2023-02-16T10:56:37.493Z,97886.50
2023-02-16T10:59:11.584Z,97879.88
2023-02-16T11:01:43.261Z,97888.78
2023-02-16T11:04:30.274Z,97882.56
2023-02-16T11:07:09.228Z,97881.34
2023-02-16T11:09:36.965Z,97880.78
2023-02-16T11:12:15.926Z,97887.03
2023-02-16T11:14:50.383Z,97877.19
2023-02-16T11:17:18.565Z,97869.06
2023-02-16T11:19:52.878Z,97875.34
2023-02-16T11:22:37.791Z,97892.50
2023-02-16T11:25:22.649Z,97886.81
2023-02-16T11:28:02.002Z,97880.06
2023-02-16T11:30:40.090Z,97876.16
2023-02-16T11:33:23.705Z,97870.38
2023-02-16T11:35:50.404Z,97873.81
2023-02-16T11:38:36.009Z,97873.63
2023-02-16T11:41:06.457Z,97875.09
2023-02-16T11:43:37.367Z,97873.59
2023-02-16T11:46:18.594Z,97871.25
2023-02-16T11:48:45.845Z,97871.56
2023-02-16T11:51:19.400Z,97868.94
2023-02-16T11:53:59.231Z,97861.16
2023-02-16T11:56:29.852Z,97860.44
2023-02-16T11:59:17.281Z,97864.78
2023-02-16T12:01:50.236Z,97857.22
2023-02-16T12:04:29.680Z,97861.97
2023-02-16T12:07:23.009Z,97856.50
2023-02-16T12:09:55.486Z,97861.69
2023-02-16T12:12:33.138Z,97868.97
2023-02-16T12:15:03.556Z,97853.06
2023-02-16T12:17:36.387Z,97854.41
2023-02-16T12:20:19.243Z,97864.63
2023-02-16T12:22:56.685Z,97860.63
2023-02-16T12:25:47.885Z,97868.28
2023-02-16T12:28:26.271Z,97856.22
2023-02-16T12:31:31.709Z,97848.25
2023-02-16T12:34:23.717Z,97852.84
2023-02-16T12:36:57.724Z,97845.97
2023-02-16T12:39:30.655Z,97837.38
2023-02-16T12:42:11.062Z,97846.03
2023-02-16T12:44:52.525Z,97836.00
2023-02-16T12:47:45.088Z,97838.31
2023-02-16T12:50:27.055Z,97831.69
2023-02-16T12:52:54.034Z,97828.69
2023-02-16T12:55:49.113Z,97818.06
2023-02-16T12:58:58.095Z,97819.38
2023-02-16T13:01:31.176Z,97817.25
2023-02-16T13:04:15.924Z,97812.50
2023-02-16T13:07:16.462Z,97790.69
2023-02-16T13:10:02.070Z,97801.47
2023-02-16T13:13:15.300Z,97802.16
2023-02-16T13:15:59.123Z,97805.00
2023-02-16T13:18:36.019Z,97806.13
2023-02-16T13:21:08.975Z,97801.78
2023-02-16T13:23:59.679Z,97803.94
2023-02-16T13:26:42.842Z,97791.75
2023-02-16T13:29:31.470Z,97806.88
2023-02-16T13:32:33.614Z,97799.22
2023-02-16T13:35:17.144Z,97797.38
2023-02-16T13:38:21.576Z,97790.91
2023-02-16T13:41:09.934Z,97790.59
2023-02-16T13:44:08.951Z,97786.06
2023-02-16T13:46:44.574Z,97790.19
2023-02-16T13:49:40.677Z,97795.22
2023-02-16T13:52:10.302Z,97789.59
2023-02-16T13:54:43.770Z,97784.94
2023-02-16T13:57:34.538Z,97794.44
2023-02-16T14:00:02.655Z,97788.91
2023-02-16T14:02:54.547Z,97788.31
2023-02-16T14:05:36.633Z,97780.63
2023-02-16T14:08:22.807Z,97777.78
2023-02-16T14:10:55.462Z,97776.22
2023-02-16T14:13:28.208Z,97778.47
2023-02-16T14:15:58.858Z,97775.50
2023-02-16T14:18:28.521Z,97774.53
2023-02-16T14:21:04.696Z,97777.47
2023-02-16T14:23:37.094Z,97785.75
2023-02-16T14:26:06.029Z,97769.97
2023-02-16T14:28:33.006Z,97773.06
2023-02-16T14:31:04.787Z,97780.34
2023-02-16T14:33:46.842Z,97767.31
2023-02-16T14:36:18.372Z,97769.22
2023-02-16T14:38:50.439Z,97768.00
2023-02-16T14:41:23.118Z,97770.94
2023-02-16T14:44:19.157Z,97780.50
2023-02-16T14:47:23.524Z,97772.41
2023-02-16T14:50:09.230Z,97782.38
2023-02-16T14:52:47.801Z,97780.38
2023-02-16T14:55:43.498Z,97783.56
2023-02-16T14:58:28.971Z,97775.22
2023-02-16T15:01:08.682Z,97775.34
2023-02-16T15:03:41.812Z,97776.91
2023-02-16T15:06:20.133Z,97776.19
2023-02-16T15:08:57.047Z,97776.53
2023-02-16T15:11:30.504Z,97763.78
2023-02-16T15:14:11.540Z,97766.63
2023-02-16T15:16:40.955Z,97763.47
2023-02-16T15:19:12.922Z,97758.63
2023-02-16T15:21:39.861Z,97763.84
2023-02-16T15:24:07.734Z,97752.69
2023-02-16T15:26:35.850Z,97745.84
2023-02-16T15:29:21.336Z,97755.47
2023-02-16T15:31:48.916Z,97749.97
2023-02-16T15:34:30.367Z,97752.69
2023-02-16T15:36:57.311Z,97750.50
2023-02-16T15:39:45.150Z,97747.59
2023-02-16T15:42:28.210Z,97745.81
2023-02-16T15:44:56.047Z,97740.13
2023-02-16T15:47:25.379Z,97737.66
2023-02-16T15:49:53.982Z,97728.81
2023-02-16T15:52:33.811Z,97723.94
2023-02-16T15:55:03.740Z,97733.94
2023-02-16T15:57:38.479Z,97727.88
2023-02-16T16:00:23.171Z,97726.09
2023-02-16T16:02:53.036Z,97722.78
2023-02-16T16:05:28.696Z,97730.47
2023-02-16T16:07:56.883Z,97727.84
2023-02-16T16:10:32.519Z,97727.97
2023-02-16T16:13:11.558Z,97724.19
2023-02-16T16:15:45.061Z,97720.72
2023-02-16T16:18:39.253Z,97719.78
2023-02-16T16:21:39.312Z,97725.22
2023-02-16T16:24:11.735Z,97719.63
2023-02-16T16:26:58.819Z,97722.63
2023-02-16T16:29:34.223Z,97715.00
2023-02-16T16:32:01.575Z,97722.03
2023-02-16T16:34:39.900Z,97727.28
2023-02-16T16:37:26.489Z,97724.50
2023-02-16T16:40:22.014Z,97729.06
2023-02-16T16:43:03.903Z,97734.38
2023-02-16T16:45:39.964Z,97729.34
2023-02-16T16:48:18.303Z,97725.22
2023-02-16T16:50:46.685Z,97717.50
2023-02-16T16:53:31.716Z,97720.44
2023-02-16T16:55:59.223Z,97731.78
2023-02-16T16:58:27.200Z,97730.44
2023-02-16T17:00:53.897Z,97728.22
2023-02-16T17:03:20.638Z,97741.38
2023-02-16T17:05:47.471Z,97741.63
2023-02-16T17:08:14.067Z,97739.75
2023-02-16T17:10:41.615Z,97750.53
2023-02-16T17:13:15.217Z,97743.69
2023-02-16T17:15:51.588Z,97749.00
2023-02-16T17:18:20.857Z,97750.78
2023-02-16T17:20:48.093Z,97754.94
2023-02-16T17:23:16.737Z,97754.03
2023-02-16T17:25:44.138Z,97754.66
2023-02-16T17:28:11.620Z,97744.31
2023-02-16T17:30:38.274Z,97754.09
2023-02-16T17:33:07.092Z,97756.66
2023-02-16T17:35:36.318Z,97758.28
2023-02-16T17:38:17.294Z,97749.50
2023-02-16T17:40:47.435Z,97753.13
2023-02-16T17:43:15.030Z,97749.56
2023-02-16T17:45:42.457Z,97748.75
2023-02-16T17:48:15.433Z,97741.03
2023-02-16T17:50:42.683Z,97742.19
2023-02-16T17:53:17.450Z,97731.84
2023-02-16T17:55:44.960Z,97733.59
2023-02-16T17:58:11.907Z,97731.66
2023-02-16T18:00:39.338Z,97733.41
2023-02-16T18:03:06.659Z,97729.78
2023-02-16T18:05:34.243Z,97743.91
2023-02-16T18:08:01.523Z,97739.19
2023-02-16T18:10:42.996Z,97741.13
2023-02-16T18:13:11.611Z,97734.25
2023-02-16T18:15:40.554Z,97734.78
2023-02-16T18:18:07.484Z,97724.44
2023-02-16T18:20:34.482Z,97729.00
2023-02-16T18:23:01.065Z,97727.31
2023-02-16T18:25:27.755Z,97723.88
2023-02-16T18:27:54.439Z,97723.69
2023-02-16T18:30:21.289Z,97719.28
2023-02-16T18:32:47.869Z,97721.97
2023-02-16T18:35:15.221Z,97727.34
2023-02-16T18:37:42.059Z,97726.38
2023-02-16T18:40:10.983Z,97722.75
2023-02-16T18:42:38.197Z,97729.41
2023-02-16T18:45:06.001Z,97732.97
2023-02-16T18:47:32.656Z,97731.97
2023-02-16T18:49:59.382Z,97738.16
2023-02-16T18:52:25.946Z,97726.88
2023-02-16T18:54:52.598Z,97737.78
2023-02-16T18:57:19.504Z,97733.06
2023-02-16T18:59:46.077Z,97732.88
2023-02-16T19:02:12.773Z,97731.31
2023-02-16T19:04:39.779Z,97729.66
2023-02-16T19:07:06.728Z,97724.28
2023-02-16T19:09:33.558Z,97726.19
2023-02-16T19:12:00.164Z,97728.13
2023-02-16T19:14:26.829Z,97738.63
2023-02-16T19:16:53.485Z,97731.59
2023-02-16T19:19:20.379Z,97727.91
2023-02-16T19:21:46.926Z,97738.19
2023-02-16T19:24:13.815Z,97731.25
2023-02-16T19:26:40.810Z,97734.47
2023-02-16T19:29:07.404Z,97733.56
2023-02-16T19:31:35.570Z,97729.38
2023-02-16T19:34:02.508Z,97733.88
2023-02-16T19:36:32.074Z,97727.53
2023-02-16T19:38:58.907Z,97722.28
2023-02-16T19:41:35.635Z,97717.78
2023-02-16T19:44:02.836Z,97725.84
2023-02-16T19:46:30.417Z,97720.59
2023-02-16T19:48:57.705Z,97716.19
2023-02-16T19:51:24.644Z,97716.09
2023-02-16T19:53:51.700Z,97712.63
2023-02-16T19:56:21.457Z,97713.56
2023-02-16T19:58:49.054Z,97715.41
2023-02-16T20:01:23.241Z,97718.13
2023-02-16T20:03:50.898Z,97724.41
2023-02-16T20:06:23.549Z,97723.38
2023-02-16T20:08:51.862Z,97717.97
2023-02-16T20:11:21.175Z,97720.28
2023-02-16T20:13:48.420Z,97713.03
2023-02-16T20:16:17.040Z,97713.09
2023-02-16T20:18:44.808Z,97698.84
2023-02-16T20:21:19.068Z,97698.75
2023-02-16T20:23:46.074Z,97700.44
2023-02-16T20:26:18.720Z,97698.59
2023-02-16T20:28:46.132Z,97696.13
2023-02-16T20:31:22.029Z,97697.13
2023-02-16T20:33:49.587Z,97691.03
2023-02-16T20:36:18.150Z,97694.63
2023-02-16T20:38:44.799Z,97693.34
2023-02-16T20:41:11.857Z,97685.63
2023-02-16T20:43:39.243Z,97692.28
2023-02-16T20:46:07.928Z,97686.78
2023-02-16T20:48:35.406Z,97698.00
2023-02-16T20:51:04.910Z,97699.63
2023-02-16T20:53:32.584Z,97687.41
2023-02-16T20:56:08.347Z,97686.47
2023-02-16T20:58:36.952Z,97692.28
2023-02-16T21:01:10.361Z,97695.75
2023-02-16T21:03:36.967Z,97679.22
2023-02-16T21:06:04.085Z,97692.03
2023-02-16T21:08:30.869Z,97688.88
2023-02-16T21:10:57.458Z,97683.09
2023-02-16T21:13:24.046Z,97686.41
2023-02-16T21:15:50.707Z,97680.94
2023-02-16T21:18:17.277Z,97673.13
2023-02-16T21:20:44.474Z,97668.75
2023-02-16T21:23:11.087Z,97671.38
2023-02-16T21:25:38.183Z,97666.13
2023-02-16T21:28:04.902Z,97664.84
2023-02-16T21:30:31.729Z,97668.56
2023-02-16T21:32:58.374Z,97654.59
2023-02-16T21:35:24.962Z,97660.09
2023-02-16T21:37:51.593Z,97663.59
2023-02-16T21:40:36.809Z,97663.22
2023-02-16T21:43:03.508Z,97661.69
2023-02-16T21:45:30.147Z,97667.06
2023-02-16T21:48:15.384Z,97662.28
2023-02-16T21:50:42.337Z,97646.53
2023-02-16T21:53:09.533Z,97650.00
2023-02-16T21:55:57.054Z,97649.50
2023-02-16T21:58:26.842Z,97647.91
2023-02-16T22:00:53.837Z,97649.59
2023-02-16T22:03:20.759Z,97647.22
2023-02-16T22:05:47.814Z,97642.19
2023-02-16T22:08:14.824Z,97640.50
2023-02-16T22:10:41.406Z,97643.03
2023-02-16T22:13:08.515Z,97648.22
2023-02-16T22:15:37.110Z,97640.00
2023-02-16T22:18:07.129Z,97645.44
2023-02-16T22:20:33.726Z,97653.53
2023-02-16T22:23:00.332Z,97655.56
2023-02-16T22:25:27.023Z,97633.16
2023-02-16T22:27:53.677Z,97640.88
2023-02-16T22:30:20.454Z,97642.09
2023-02-16T22:32:49.410Z,97641.97
2023-02-16T22:35:16.041Z,97644.81
2023-02-16T22:37:42.662Z,97644.75
2023-02-16T22:40:09.565Z,97639.56
2023-02-16T22:42:36.376Z,97644.81
2023-02-16T22:45:03.644Z,97642.56
2023-02-16T22:47:31.292Z,97659.44
2023-02-16T22:49:57.888Z,97653.25
2023-02-16T22:52:24.756Z,97661.91
2023-02-16T22:54:54.200Z,97671.56
2023-02-16T22:57:20.800Z,97665.38
2023-02-16T22:59:47.360Z,97663.22
2023-02-16T23:02:14.126Z,97656.34
2023-02-16T23:04:43.197Z,97663.66
2023-02-16T23:07:10.000Z,97656.19
2023-02-16T23:09:36.672Z,97651.78
2023-02-16T23:12:03.641Z,97653.72
2023-02-16T23:14:30.693Z,97650.00
2023-02-16T23:16:57.453Z,97646.75
2023-02-16T23:19:26.478Z,97644.75
2023-02-16T23:21:53.962Z,97650.16
2023-02-16T23:24:22.944Z,97650.38
2023-02-16T23:26:49.980Z,97648.16
2023-02-16T23:29:16.987Z,97656.19
2023-02-16T23:31:46.735Z,97655.56
2023-02-16T23:34:14.148Z,97654.31
2023-02-16T23:36:40.840Z,97649.22
2023-02-16T23:39:11.398Z,97659.91
2023-02-16T23:41:38.493Z,97652.69
2023-02-16T23:44:05.722Z,97654.66
2023-02-16T23:46:32.808Z,97649.06
2023-02-16T23:48:59.504Z,97643.97
2023-02-16T23:51:26.589Z,97632.41
2023-02-16T23:53:53.727Z,97627.75
2023-02-16T23:56:22.842Z,97629.91
2023-02-16T23:58:49.873Z,97628.28
